Lagrangeville, NY (12540)

8:14 AM EST on March 01, 2015 (GMT -0500)
cawley aviation@sky acres airport | Change Station
CLOSE
Current Station
Personal Weather Station
Location: LaGrangeville, NY
Elevation: 650 ft
Nearby Weather Stations
Active Advisory: Winter Weather Advisory Active Notice: Public Information Statement

Elev 650 ft 41.71 °N, 73.74 °W | Updated 8 minutes ago

Overcast
Overcast
18.6 °F
Feels Like 19 °F
N
2.0
Wind Variable Wind from South
Gusts 4.0 mph

Today
High -- | Low -- °F
--% Chance of Precip.
Yesterday
High -- | Low -- °F
Precip. -- in
6:30 AM 5:45 PM
Waxing Gibbous, 85% visible
Pressure 30.65 in
Visibility 8.0 miles
Clouds Overcast 7000 ft
Windchill 19 °F
Dew Point 7 °F
Humidity 60%
Rainfall 0.00 in
Snow Depth Not available.
UV 0 out of 12
Pollen .40 out of 12
Air Quality Not available.
Flu Activity Not available.
METAR KPOU 011253Z 00000KT 8SM OVC070 M11/M16 A3064 RMK AO2 SLP377 T11111161

More Conditions Fewer Conditions

Pressure 30.65 in
Visibility 8.0 miles
Clouds Overcast 7000 ft
Windchill 19 °F
Dew Point 7 °F
Humidity 60%
Rainfall 0.00 in
Snow Depth Not available.
UV 0 out of 12
Pollen .40 out of 12
Air Quality Not available.
Flu Activity Not available.
METAR KPOU 011253Z 00000KT 8SM OVC070 M11/M16 A3064 RMK AO2 SLP377 T11111161

More Conditions Fewer Conditions

10-Day Weather Forecast

Almanac

Astronomy

Mar. 01, 2015 Rise Set
Actual Time
Civil Twilight
Nautical Twilight
Astronomical Twilight
Moon
Length of Visible Light
Length of Day
Tomorrow will be .
, % of the Moon is Illuminated

Today's Extremes

State Highs State Lows

Community

WunderPhotos

Upload Photos

1,801,374 photos uploaded!

WunderBlogs® & News

Nearby

Air Quality

  Air Quality AQ Index Pollutant
Not available.

Snow Depth

Station Depth Elevation

Earthquake Activity

City Distance Mag. Time & Date
Minimum magnitude displayed is 2.5.

Coastal Water Temperatures

Place Temperature

Nearby Weather Stations

Winter Weather Advisory
Statement as of 4:13 AM EST on March 01, 2015

... Winter Weather Advisory remains in effect from noon today to
7 am EST Monday...

* locations... Herkimer County... the Mohawk Valley... Schoharie
valley... eastern Catskills... Mid Hudson valley... Taconics...
Litchfield Hills... the Berkshires and southern Green
Mountains.

* Hazard types... snow.

* Snow accumulations... 3 to 6 inches... with the highest amounts
across Ulster... Dutchess... southern Berkshire and Litchfield
counties.

* Timing... this afternoon through tonight.

* Impacts... snow covered roads and poor visibility resulting in
hazardous travel conditions.

* Winds... south 5 to 15 mph.

* Temperatures... in the upper teens to mid 20s.

Precautionary/preparedness actions...

A Winter Weather Advisory for snow means that periods of snow
will cause primarily travel difficulties. Be prepared for snow
covered roads and limited visibilities... and use caution while
driving.